createdAt,value
2018-08-17T00:00:45.197Z,0
2018-08-17T00:01:45.189Z,0
2018-08-17T00:02:44.681Z,0
2018-08-17T00:03:45.183Z,0
2018-08-17T00:04:44.923Z,0
2018-08-17T00:05:45.178Z,0
2018-08-17T00:06:45.184Z,0
2018-08-17T00:07:44.916Z,0
2018-08-17T00:08:45.171Z,0
2018-08-17T00:09:44.909Z,0
2018-08-17T00:10:45.171Z,0
2018-08-17T00:11:45.159Z,0
2018-08-17T00:12:45.151Z,0
2018-08-17T00:13:44.901Z,0
2018-08-17T00:14:45.151Z,0
2018-08-17T00:15:44.633Z,0
2018-08-17T00:16:44.633Z,0
2018-08-17T00:17:44.879Z,0
2018-08-17T00:18:45.136Z,0
2018-08-17T00:19:44.876Z,0
2018-08-17T00:20:44.623Z,0
2018-08-17T00:21:44.868Z,0
2018-08-17T00:22:44.607Z,0
2018-08-17T00:23:45.121Z,0
2018-08-17T00:24:44.863Z,0
2018-08-17T00:25:44.862Z,0
2018-08-17T00:26:45.111Z,0
2018-08-17T00:27:45.104Z,0
2018-08-17T00:28:45.105Z,0
2018-08-17T00:29:44.589Z,0
2018-08-17T00:30:44.845Z,0
2018-08-17T00:31:44.585Z,0
2018-08-17T00:32:45.096Z,0
2018-08-17T00:33:44.838Z,0
2018-08-17T00:34:44.833Z,0
2018-08-17T00:35:45.090Z,0
2018-08-17T00:36:44.825Z,0
2018-08-17T00:37:44.564Z,0
2018-08-17T00:38:44.820Z,0
2018-08-17T00:39:44.819Z,0
2018-08-17T00:40:45.070Z,0
2018-08-17T00:41:44.811Z,0
2018-08-17T00:42:45.062Z,0
2018-08-17T00:43:45.055Z,0
2018-08-17T00:44:44.797Z,0
2018-08-17T00:45:44.539Z,0
2018-08-17T00:46:44.794Z,0
2018-08-17T00:47:44.528Z,0
2018-08-17T00:48:44.532Z,0
2018-08-17T00:49:44.266Z,0
2018-08-17T00:50:45.043Z,0
2018-08-17T00:51:44.773Z,0
2018-08-17T00:52:44.771Z,0
2018-08-17T00:53:44.769Z,0
2018-08-17T00:54:44.785Z,0
2018-08-17T00:55:45.088Z,0
2018-08-17T00:56:45.075Z,0
2018-08-17T00:57:44.775Z,0
2018-08-17T00:58:45.016Z,0
2018-08-17T00:59:44.754Z,0
2018-08-17T01:00:44.759Z,0
2018-08-17T01:01:45.006Z,0
2018-08-17T01:02:44.738Z,0
2018-08-17T01:03:44.734Z,0
2018-08-17T01:04:44.735Z,0
2018-08-17T01:05:44.729Z,0
2018-08-17T01:06:44.779Z,0
2018-08-17T01:07:44.471Z,0
2018-08-17T01:08:44.983Z,0
2018-08-17T01:09:44.727Z,0
2018-08-17T01:10:44.713Z,0
2018-08-17T01:11:44.715Z,0
2018-08-17T01:12:44.711Z,0
2018-08-17T01:13:44.960Z,0
2018-08-17T01:14:44.698Z,0
2018-08-17T01:15:44.961Z,0
2018-08-17T01:16:44.693Z,0
2018-08-17T01:17:44.961Z,0
2018-08-17T01:18:44.689Z,0
2018-08-17T01:19:44.431Z,0
2018-08-17T01:20:44.936Z,0
2018-08-17T01:21:44.941Z,0
2018-08-17T01:22:44.677Z,0
2018-08-17T01:23:44.933Z,0
2018-08-17T01:24:44.149Z,0
2018-08-17T01:25:44.920Z,0
2018-08-17T01:26:44.916Z,0
2018-08-17T01:27:44.911Z,0
2018-08-17T01:28:44.395Z,0
2018-08-17T01:29:44.905Z,0
2018-08-17T01:30:44.904Z,0
2018-08-17T01:31:44.902Z,0
2018-08-17T01:32:44.907Z,0
2018-08-17T01:33:44.895Z,0
2018-08-17T01:34:44.631Z,0
2018-08-17T01:35:44.632Z,0
2018-08-17T01:36:44.886Z,0
2018-08-17T01:37:44.893Z,0
2018-08-17T01:38:44.365Z,0
2018-08-17T01:39:44.617Z,0
2018-08-17T01:40:44.358Z,0
2018-08-17T01:41:44.362Z,0
2018-08-17T01:42:44.349Z,0
2018-08-17T01:43:44.345Z,0
2018-08-17T01:44:44.854Z,0
2018-08-17T01:45:44.596Z,0
2018-08-17T01:46:44.857Z,0
2018-08-17T01:47:44.586Z,0
2018-08-17T01:48:44.588Z,0
2018-08-17T01:49:44.843Z,0
2018-08-17T01:50:44.324Z,0
2018-08-17T01:51:44.319Z,0
2018-08-17T01:52:44.831Z,0
2018-08-17T01:53:44.570Z,0
2018-08-17T01:54:44.560Z,0
2018-08-17T01:55:44.820Z,0
2018-08-17T01:56:44.819Z,0
2018-08-17T01:57:44.568Z,0
2018-08-17T01:58:44.304Z,0
2018-08-17T01:59:44.806Z,0
2018-08-17T02:00:44.546Z,0
2018-08-17T02:01:44.793Z,0
2018-08-17T02:02:44.532Z,0
2018-08-17T02:03:44.532Z,0
2018-08-17T02:04:44.787Z,0
2018-08-17T02:05:44.529Z,0
2018-08-17T02:06:44.777Z,0
2018-08-17T02:07:44.515Z,0
2018-08-17T02:08:44.254Z,0
2018-08-17T02:09:44.764Z,0
2018-08-17T02:10:44.511Z,0
2018-08-17T02:11:44.502Z,0
2018-08-17T02:12:44.759Z,0
2018-08-17T02:13:44.496Z,0
2018-08-17T02:14:44.712Z,0
2018-08-17T02:15:44.739Z,0
2018-08-17T02:16:44.740Z,0
2018-08-17T02:17:44.489Z,0
2018-08-17T02:18:44.482Z,0
2018-08-17T02:19:44.222Z,0
2018-08-17T02:20:44.727Z,0
2018-08-17T02:21:44.208Z,0
2018-08-17T02:22:44.210Z,0
2018-08-17T02:23:44.464Z,0
2018-08-17T02:24:44.748Z,0
2018-08-17T02:25:44.711Z,0
2018-08-17T02:26:44.448Z,0
2018-08-17T02:27:44.743Z,0
2018-08-17T02:28:44.192Z,0
2018-08-17T02:29:44.432Z,0
2018-08-17T02:30:44.436Z,0
2018-08-17T02:31:44.452Z,0
2018-08-17T02:32:44.716Z,0
2018-08-17T02:33:44.431Z,0
2018-08-17T02:34:44.707Z,0
2018-08-17T02:35:44.414Z,0
2018-08-17T02:36:44.675Z,0
2018-08-17T02:37:44.664Z,0
2018-08-17T02:38:44.662Z,0
2018-08-17T02:39:44.683Z,0
2018-08-17T02:40:44.654Z,0
2018-08-17T02:41:44.656Z,0
2018-08-17T02:42:44.646Z,0
2018-08-17T02:43:44.650Z,0
2018-08-17T02:44:44.392Z,0
2018-08-17T02:45:44.387Z,0
2018-08-17T02:46:43.864Z,0
2018-08-17T02:47:44.397Z,0
2018-08-17T02:48:44.638Z,0
2018-08-17T02:49:44.106Z,0
2018-08-17T02:50:44.365Z,0
2018-08-17T02:51:44.383Z,0
2018-08-17T02:52:44.356Z,0
2018-08-17T02:53:44.619Z,0
2018-08-17T02:54:44.607Z,0
2018-08-17T02:55:44.600Z,0
2018-08-17T02:56:44.598Z,0
2018-08-17T02:57:44.601Z,0
2018-08-17T02:58:44.601Z,0
2018-08-17T02:59:45.164Z,0
2018-08-17T03:00:44.587Z,0
2018-08-17T03:01:44.591Z,0
2018-08-17T03:02:44.076Z,0
2018-08-17T03:03:44.591Z,0
2018-08-17T03:04:44.308Z,0
2018-08-17T03:05:44.397Z,0
2018-08-17T03:06:44.591Z,0
2018-08-17T03:07:44.556Z,0
2018-08-17T03:08:44.300Z,0
2018-08-17T03:09:44.040Z,0
2018-08-17T03:10:44.556Z,0
2018-08-17T03:11:44.027Z,0
2018-08-17T03:12:44.543Z,0
2018-08-17T03:13:44.532Z,0
2018-08-17T03:14:43.763Z,0
2018-08-17T03:15:44.523Z,0
2018-08-17T03:16:44.029Z,0
2018-08-17T03:17:44.528Z,0
2018-08-17T03:18:44.261Z,0
2018-08-17T03:19:44.507Z,0
2018-08-17T03:20:44.525Z,0
2018-08-17T03:21:44.509Z,0
2018-08-17T03:22:44.241Z,0
2018-08-17T03:23:44.501Z,0
2018-08-17T03:24:44.243Z,0
2018-08-17T03:25:43.976Z,0
2018-08-17T03:26:44.485Z,0
2018-08-17T03:27:44.488Z,0
2018-08-17T03:28:44.221Z,0
2018-08-17T03:29:44.484Z,0
2018-08-17T03:30:44.470Z,0
2018-08-17T03:31:44.463Z,0
2018-08-17T03:32:44.201Z,0
2018-08-17T03:33:44.455Z,0
2018-08-17T03:34:44.453Z,0
2018-08-17T03:35:44.448Z,0
2018-08-17T03:36:43.678Z,0
2018-08-17T03:37:44.180Z,0
2018-08-17T03:38:44.177Z,0
2018-08-17T03:39:44.183Z,0
2018-08-17T03:40:44.176Z,0
2018-08-17T03:41:44.424Z,0
2018-08-17T03:42:44.170Z,0
2018-08-17T03:43:44.450Z,0
2018-08-17T03:44:44.419Z,0
2018-08-17T03:45:43.898Z,0
2018-08-17T03:46:44.152Z,0
2018-08-17T03:47:44.440Z,0
2018-08-17T03:48:44.392Z,0
2018-08-17T03:49:44.139Z,0
2018-08-17T03:50:44.140Z,0
2018-08-17T03:51:44.389Z,0
2018-08-17T03:52:43.611Z,0
2018-08-17T03:53:43.861Z,0
2018-08-17T03:54:44.371Z,0
2018-08-17T03:55:44.112Z,0
2018-08-17T03:56:44.373Z,0
2018-08-17T03:57:44.367Z,5
2018-08-17T03:58:44.354Z,5
2018-08-17T03:59:44.349Z,5
2018-08-17T04:00:44.347Z,5
2018-08-17T04:01:44.386Z,5
2018-08-17T04:02:44.078Z,5
2018-08-17T04:03:44.091Z,5
2018-08-17T04:04:43.821Z,5
2018-08-17T04:05:44.069Z,5
2018-08-17T04:06:44.060Z,10
2018-08-17T04:07:44.321Z,10
2018-08-17T04:08:44.318Z,10
2018-08-17T04:09:44.058Z,10
2018-08-17T04:10:44.304Z,10
2018-08-17T04:11:43.785Z,15
2018-08-17T04:12:44.297Z,15
2018-08-17T04:13:44.293Z,15
2018-08-17T04:14:44.296Z,15
2018-08-17T04:15:44.704Z,15
2018-08-17T04:16:44.028Z,20
2018-08-17T04:17:44.025Z,20
2018-08-17T04:18:44.022Z,20
2018-08-17T04:19:44.032Z,20
2018-08-17T04:20:43.754Z,25
2018-08-17T04:21:43.746Z,25
2018-08-17T04:22:43.999Z,25
2018-08-17T04:23:44.281Z,25
2018-08-17T04:24:44.249Z,30
2018-08-17T04:25:43.993Z,30
2018-08-17T04:26:44.235Z,30
2018-08-17T04:27:43.980Z,30
2018-08-17T04:28:43.972Z,35
2018-08-17T04:29:43.974Z,35
2018-08-17T04:30:44.278Z,35
2018-08-17T04:31:43.964Z,35
2018-08-17T04:32:44.216Z,40
2018-08-17T04:33:43.961Z,40
2018-08-17T04:34:43.695Z,40
2018-08-17T04:35:43.699Z,40
2018-08-17T04:36:43.690Z,45
2018-08-17T04:37:44.195Z,45
2018-08-17T04:38:44.203Z,45
2018-08-17T04:39:43.931Z,45
2018-08-17T04:40:43.925Z,50
2018-08-17T04:41:44.178Z,50
2018-08-17T04:42:44.179Z,50
2018-08-17T04:43:44.157Z,50
2018-08-17T04:44:43.911Z,55
2018-08-17T04:45:43.906Z,55
2018-08-17T04:46:44.163Z,55
2018-08-17T04:47:43.905Z,55
2018-08-17T04:48:43.894Z,60
2018-08-17T04:49:44.165Z,60
2018-08-17T04:50:44.141Z,60
2018-08-17T04:51:43.892Z,65
2018-08-17T04:52:44.143Z,65
2018-08-17T04:53:44.133Z,65
2018-08-17T04:54:43.871Z,70
2018-08-17T04:55:43.612Z,70
2018-08-17T04:56:43.877Z,70
2018-08-17T04:57:44.120Z,70
2018-08-17T04:58:43.854Z,75
2018-08-17T04:59:44.110Z,75
2018-08-17T05:00:44.100Z,75
2018-08-17T05:01:44.100Z,75
2018-08-17T05:02:44.101Z,75
2018-08-17T05:03:44.099Z,75
2018-08-17T05:04:44.092Z,75
2018-08-17T05:05:44.097Z,75
2018-08-17T05:06:44.086Z,80
2018-08-17T05:07:43.828Z,80
2018-08-17T05:08:43.822Z,80
2018-08-17T05:09:44.072Z,85
2018-08-17T05:10:44.077Z,85
2018-08-17T05:11:43.804Z,90
2018-08-17T05:12:44.063Z,90
2018-08-17T05:13:44.067Z,95
2018-08-17T05:14:44.046Z,95
2018-08-17T05:15:43.791Z,100
2018-08-17T05:16:43.784Z,100
2018-08-17T05:17:43.529Z,105
2018-08-17T05:18:43.266Z,105
2018-08-17T05:19:43.787Z,110
2018-08-17T05:20:44.029Z,110
2018-08-17T05:21:44.474Z,110
2018-08-17T05:22:43.772Z,115
2018-08-17T05:23:43.248Z,115
2018-08-17T05:24:44.017Z,115
2018-08-17T05:25:43.754Z,120
2018-08-17T05:26:44.008Z,120
2018-08-17T05:27:44.011Z,120
2018-08-17T05:28:43.491Z,120
2018-08-17T05:29:43.743Z,120
2018-08-17T05:30:44.005Z,120
2018-08-17T05:31:43.483Z,120
2018-08-17T05:32:43.987Z,120
2018-08-17T05:33:43.724Z,125
2018-08-17T05:34:43.725Z,125
2018-08-17T05:35:43.984Z,125
2018-08-17T05:36:43.971Z,125
2018-08-17T05:37:43.973Z,125
2018-08-17T05:38:43.452Z,125
2018-08-17T05:39:43.971Z,125
2018-08-17T05:40:43.963Z,125
2018-08-17T05:41:43.969Z,125
2018-08-17T05:42:43.697Z,125
2018-08-17T05:43:43.716Z,130
2018-08-17T05:44:43.694Z,130
2018-08-17T05:45:43.938Z,130
2018-08-17T05:46:43.950Z,130
2018-08-17T05:47:43.938Z,130
2018-08-17T05:48:43.677Z,130
2018-08-17T05:49:43.678Z,130
2018-08-17T05:50:43.937Z,130
2018-08-17T05:51:43.673Z,135
2018-08-17T05:52:43.929Z,135
2018-08-17T05:53:43.933Z,135
2018-08-17T05:54:43.920Z,135
2018-08-17T05:55:43.914Z,140
2018-08-17T05:56:43.309Z,140
2018-08-17T05:57:43.916Z,140
2018-08-17T05:58:43.912Z,140
2018-08-17T05:59:43.907Z,140
2018-08-17T06:00:43.916Z,140
2018-08-17T06:01:43.645Z,140
2018-08-17T06:02:44.072Z,145
2018-08-17T06:03:43.643Z,145
2018-08-17T06:04:43.380Z,145
2018-08-17T06:05:43.635Z,145
2018-08-17T06:06:43.376Z,145
2018-08-17T06:07:43.375Z,145
2018-08-17T06:08:43.632Z,145
2018-08-17T06:09:43.899Z,150
2018-08-17T06:10:43.883Z,150
2018-08-17T06:11:43.874Z,150
2018-08-17T06:12:43.621Z,150
2018-08-17T06:13:43.361Z,150
2018-08-17T06:14:43.875Z,145
2018-08-17T06:15:43.879Z,150
2018-08-17T06:16:43.880Z,150
2018-08-17T06:17:43.608Z,150
2018-08-17T06:18:43.610Z,150
2018-08-17T06:19:43.618Z,150
2018-08-17T06:20:43.602Z,150
2018-08-17T06:21:43.395Z,150
2018-08-17T06:22:43.599Z,155
2018-08-17T06:23:43.850Z,155
2018-08-17T06:24:43.873Z,155
2018-08-17T06:25:43.596Z,155
2018-08-17T06:26:43.865Z,155
2018-08-17T06:27:43.593Z,155
2018-08-17T06:28:43.591Z,155
2018-08-17T06:29:43.847Z,160
2018-08-17T06:30:43.898Z,160
2018-08-17T06:31:44.091Z,160
2018-08-17T06:32:43.581Z,160
2018-08-17T06:33:43.068Z,155
2018-08-17T06:34:43.833Z,150
2018-08-17T06:35:43.579Z,155
2018-08-17T06:36:43.834Z,155
2018-08-17T06:37:43.317Z,155
2018-08-17T06:38:43.573Z,160
2018-08-17T06:39:43.058Z,160
2018-08-17T06:40:43.830Z,160
2018-08-17T06:41:43.569Z,155
2018-08-17T06:42:43.573Z,155
2018-08-17T06:43:43.828Z,155
2018-08-17T06:44:43.566Z,155
2018-08-17T06:45:43.848Z,155
2018-08-17T06:46:43.824Z,155
2018-08-17T06:47:43.569Z,165
2018-08-17T06:48:43.825Z,165
2018-08-17T06:49:43.566Z,165
2018-08-17T06:50:44.099Z,180
2018-08-17T06:51:43.815Z,200
2018-08-17T06:52:43.816Z,190
2018-08-17T06:53:43.555Z,195
2018-08-17T06:54:43.814Z,210
2018-08-17T06:55:43.561Z,205
2018-08-17T06:56:43.299Z,270
2018-08-17T06:57:43.294Z,285
2018-08-17T06:58:43.561Z,305
2018-08-17T06:59:43.559Z,320
2018-08-17T07:00:43.548Z,310
2018-08-17T07:01:43.560Z,320
2018-08-17T07:02:44.285Z,330
2018-08-17T07:03:43.807Z,335
2018-08-17T07:04:43.829Z,335
2018-08-17T07:05:43.556Z,335
2018-08-17T07:06:43.820Z,335
2018-08-17T07:07:43.303Z,335
2018-08-17T07:08:44.119Z,330
2018-08-17T07:09:44.113Z,330
2018-08-17T07:10:43.570Z,340
2018-08-17T07:11:43.318Z,335
2018-08-17T07:12:43.620Z,340
2018-08-17T07:13:43.572Z,340
2018-08-17T07:14:43.315Z,345
2018-08-17T07:15:43.844Z,355
2018-08-17T07:16:44.182Z,355
2018-08-17T07:17:43.591Z,360
2018-08-17T07:18:43.334Z,360
2018-08-17T07:19:43.338Z,360
2018-08-17T07:20:43.855Z,345
2018-08-17T07:21:43.901Z,325
2018-08-17T07:22:43.618Z,300
2018-08-17T07:23:43.872Z,260
2018-08-17T07:24:43.877Z,240
2018-08-17T07:25:43.629Z,230
2018-08-17T07:26:43.889Z,215
2018-08-17T07:27:43.806Z,215
2018-08-17T07:28:43.858Z,215
2018-08-17T07:29:43.656Z,215
2018-08-17T07:30:43.668Z,215
2018-08-17T07:31:43.919Z,210
2018-08-17T07:32:43.920Z,210
2018-08-17T07:33:43.928Z,210
2018-08-17T07:34:43.948Z,215
2018-08-17T07:35:44.075Z,210
2018-08-17T07:36:43.952Z,210
2018-08-17T07:37:43.447Z,210
2018-08-17T07:38:43.718Z,210
2018-08-17T07:39:43.967Z,210
2018-08-17T07:40:43.722Z,210
2018-08-17T07:41:44.010Z,210
2018-08-17T07:42:43.482Z,210
2018-08-17T07:43:43.490Z,210
2018-08-17T07:44:44.005Z,215
2018-08-17T07:45:43.503Z,215
2018-08-17T07:46:43.761Z,215
2018-08-17T07:47:43.808Z,215
2018-08-17T07:48:43.778Z,220
2018-08-17T07:49:44.038Z,215
2018-08-17T07:50:44.050Z,215
2018-08-17T07:51:43.814Z,215
2018-08-17T07:52:43.801Z,220
2018-08-17T07:53:44.072Z,215
2018-08-17T07:54:44.068Z,215
2018-08-17T07:55:43.819Z,215
2018-08-17T07:56:43.861Z,215
2018-08-17T07:57:44.084Z,215
2018-08-17T07:58:44.108Z,210
2018-08-17T07:59:43.854Z,210
2018-08-17T08:00:43.849Z,215
2018-08-17T08:01:43.859Z,220
2018-08-17T08:02:43.853Z,220
2018-08-17T08:03:43.864Z,220
2018-08-17T08:04:44.128Z,220
2018-08-17T08:05:43.872Z,225
2018-08-17T08:06:43.876Z,225
2018-08-17T08:07:43.882Z,225
2018-08-17T08:08:44.157Z,225
2018-08-17T08:09:43.908Z,225
2018-08-17T08:10:44.154Z,220
2018-08-17T08:11:43.646Z,220
2018-08-17T08:12:43.908Z,215
2018-08-17T08:13:44.073Z,215
2018-08-17T08:14:43.701Z,210
2018-08-17T08:15:43.924Z,215
2018-08-17T08:16:44.029Z,215
2018-08-17T08:17:44.190Z,215
2018-08-17T08:18:44.205Z,215
2018-08-17T08:19:43.683Z,215
2018-08-17T08:20:44.201Z,220
2018-08-17T08:21:43.694Z,220
2018-08-17T08:22:43.954Z,225
2018-08-17T08:23:43.711Z,225
2018-08-17T08:24:43.713Z,225
2018-08-17T08:25:43.965Z,220
2018-08-17T08:26:44.236Z,220
2018-08-17T08:27:43.722Z,215
2018-08-17T08:28:44.253Z,215
2018-08-17T08:29:43.993Z,215
2018-08-17T08:30:44.269Z,210
2018-08-17T08:31:44.256Z,210
2018-08-17T08:32:44.463Z,210
2018-08-17T08:33:43.750Z,210
2018-08-17T08:34:44.274Z,210
2018-08-17T08:35:43.771Z,210
2018-08-17T08:36:43.772Z,210
2018-08-17T08:37:44.284Z,210
2018-08-17T08:38:44.027Z,205
2018-08-17T08:39:44.036Z,200
2018-08-17T08:40:44.049Z,205
2018-08-17T08:41:44.304Z,205
2018-08-17T08:42:43.787Z,205
2018-08-17T08:43:44.054Z,200
2018-08-17T08:44:43.802Z,200
2018-08-17T08:45:44.453Z,205
2018-08-17T08:46:44.068Z,205
2018-08-17T08:47:44.067Z,205
2018-08-17T08:48:44.335Z,200
2018-08-17T08:49:44.338Z,200
2018-08-17T08:50:44.342Z,205
2018-08-17T08:51:44.353Z,205
2018-08-17T08:52:44.352Z,205
2018-08-17T08:53:44.355Z,205
2018-08-17T08:54:44.371Z,200
2018-08-17T08:55:43.876Z,195
2018-08-17T08:56:44.108Z,190
2018-08-17T08:57:44.376Z,190
2018-08-17T08:58:43.871Z,195
2018-08-17T08:59:44.384Z,195
2018-08-17T09:00:44.128Z,200
2018-08-17T09:01:44.435Z,195
2018-08-17T09:02:44.393Z,200
2018-08-17T09:03:44.139Z,200
2018-08-17T09:04:44.144Z,205
2018-08-17T09:05:44.404Z,205
2018-08-17T09:06:44.408Z,205
2018-08-17T09:07:43.897Z,200
2018-08-17T09:08:44.450Z,200
2018-08-17T09:09:44.173Z,195
2018-08-17T09:10:44.170Z,195
2018-08-17T09:11:44.433Z,200
2018-08-17T09:12:44.176Z,200
2018-08-17T09:13:44.380Z,205
2018-08-17T09:14:44.446Z,205
2018-08-17T09:15:44.190Z,210
2018-08-17T09:16:44.494Z,210
2018-08-17T09:17:44.214Z,210
2018-08-17T09:18:43.952Z,210
2018-08-17T09:19:44.216Z,210
2018-08-17T09:20:44.530Z,210
2018-08-17T09:21:44.216Z,205
2018-08-17T09:22:44.221Z,205
2018-08-17T09:23:44.228Z,210
2018-08-17T09:24:44.228Z,200
2018-08-17T09:25:43.978Z,210
2018-08-17T09:26:44.232Z,195
2018-08-17T09:27:44.549Z,215
2018-08-17T09:28:44.270Z,190
2018-08-17T09:29:44.511Z,185
2018-08-17T09:30:44.260Z,210
2018-08-17T09:31:44.266Z,220
2018-08-17T09:32:44.560Z,230
2018-08-17T09:33:44.269Z,230
2018-08-17T09:34:44.532Z,230
2018-08-17T09:35:44.592Z,220
2018-08-17T09:36:44.547Z,230
2018-08-17T09:37:44.289Z,215
2018-08-17T09:38:44.044Z,210
2018-08-17T09:39:44.304Z,230
2018-08-17T09:40:44.303Z,245
2018-08-17T09:41:44.470Z,240
2018-08-17T09:42:44.575Z,235
2018-08-17T09:43:44.320Z,235
2018-08-17T09:44:44.330Z,245
2018-08-17T09:45:44.073Z,260
2018-08-17T09:46:44.331Z,265
2018-08-17T09:47:44.340Z,270
2018-08-17T09:48:44.595Z,265
2018-08-17T09:49:44.346Z,290
2018-08-17T09:50:44.609Z,285
2018-08-17T09:51:44.608Z,290
2018-08-17T09:52:44.608Z,305
2018-08-17T09:53:44.370Z,315
2018-08-17T09:54:44.369Z,340
2018-08-17T09:55:44.617Z,330
2018-08-17T09:56:44.631Z,330
2018-08-17T09:57:45.040Z,340
2018-08-17T09:58:44.129Z,355
2018-08-17T09:59:44.650Z,355
2018-08-17T10:00:44.133Z,350
2018-08-17T10:01:44.645Z,335
2018-08-17T10:02:43.884Z,320
2018-08-17T10:03:44.691Z,300
2018-08-17T10:04:44.428Z,300
2018-08-17T10:05:44.413Z,320
2018-08-17T10:06:44.415Z,300
2018-08-17T10:07:44.678Z,310
2018-08-17T10:08:44.692Z,315
2018-08-17T10:09:44.687Z,325
2018-08-17T10:10:44.448Z,345
2018-08-17T10:11:44.191Z,325
2018-08-17T10:12:43.932Z,325
2018-08-17T10:13:44.703Z,350
2018-08-17T10:14:44.465Z,350
2018-08-17T10:15:44.335Z,345
2018-08-17T10:16:44.722Z,335
2018-08-17T10:17:44.735Z,330
2018-08-17T10:18:44.469Z,325
2018-08-17T10:19:44.732Z,320
2018-08-17T10:20:45.054Z,320
2018-08-17T10:21:45.183Z,315
2018-08-17T10:22:44.236Z,310
2018-08-17T10:23:44.772Z,310
2018-08-17T10:24:44.499Z,310
2018-08-17T10:25:44.768Z,305
2018-08-17T10:26:44.765Z,295
2018-08-17T10:27:44.777Z,300
2018-08-17T10:28:44.775Z,300
2018-08-17T10:29:44.530Z,285
2018-08-17T10:30:44.784Z,290
2018-08-17T10:31:44.801Z,300
2018-08-17T10:32:44.805Z,310
2018-08-17T10:33:44.544Z,305
2018-08-17T10:34:44.808Z,295
2018-08-17T10:35:44.813Z,285
2018-08-17T10:36:44.564Z,285
2018-08-17T10:37:44.583Z,280
2018-08-17T10:38:44.573Z,270
2018-08-17T10:39:44.833Z,265
2018-08-17T10:40:45.150Z,270
2018-08-17T10:41:44.600Z,265
2018-08-17T10:42:44.594Z,260
2018-08-17T10:43:44.859Z,265
2018-08-17T10:44:44.610Z,275
2018-08-17T10:45:44.356Z,285
2018-08-17T10:46:44.357Z,295
2018-08-17T10:47:44.883Z,295
2018-08-17T10:48:45.183Z,295
2018-08-17T10:49:44.651Z,285
2018-08-17T10:50:44.903Z,280
2018-08-17T10:51:44.395Z,275
2018-08-17T10:52:44.907Z,265
2018-08-17T10:53:44.662Z,260
2018-08-17T10:54:44.922Z,245
2018-08-17T10:55:45.013Z,240
2018-08-17T10:56:44.935Z,240
2018-08-17T10:57:44.685Z,245
2018-08-17T10:58:44.952Z,245
2018-08-17T10:59:44.695Z,250
2018-08-17T11:00:44.709Z,245
2018-08-17T11:01:44.448Z,245
2018-08-17T11:02:44.715Z,245
2018-08-17T11:03:44.984Z,245
2018-08-17T11:04:44.984Z,245
2018-08-17T11:05:44.787Z,245
2018-08-17T11:06:44.987Z,245
2018-08-17T11:07:44.226Z,250
2018-08-17T11:08:44.487Z,250
2018-08-17T11:09:44.756Z,250
2018-08-17T11:10:44.501Z,255
2018-08-17T11:11:44.773Z,260
2018-08-17T11:12:44.779Z,265
2018-08-17T11:13:44.709Z,270
2018-08-17T11:14:45.048Z,265
2018-08-17T11:15:44.791Z,260
2018-08-17T11:16:44.540Z,260
2018-08-17T11:17:44.541Z,255
2018-08-17T11:18:44.808Z,250
2018-08-17T11:19:45.070Z,245
2018-08-17T11:20:44.822Z,245
2018-08-17T11:21:44.824Z,245
2018-08-17T11:22:44.918Z,240
2018-08-17T11:23:45.093Z,240
2018-08-17T11:24:45.106Z,240
2018-08-17T11:25:44.075Z,225
2018-08-17T11:26:45.110Z,220
2018-08-17T11:27:44.860Z,220
2018-08-17T11:28:45.132Z,225
2018-08-17T11:29:45.133Z,235
2018-08-17T11:30:45.185Z,240
2018-08-17T11:31:45.147Z,245
2018-08-17T11:32:44.899Z,240
2018-08-17T11:33:45.157Z,245
2018-08-17T11:34:44.643Z,250
2018-08-17T11:35:45.161Z,250
2018-08-17T11:36:45.169Z,250
2018-08-17T11:37:45.184Z,250
2018-08-17T11:38:44.668Z,250
2018-08-17T11:39:45.191Z,245
2018-08-17T11:40:45.190Z,245
2018-08-17T11:41:45.366Z,255
2018-08-17T11:42:44.690Z,245
2018-08-17T11:43:44.950Z,240
2018-08-17T11:44:44.962Z,235
2018-08-17T11:45:45.220Z,240
2018-08-17T11:46:44.973Z,245
2018-08-17T11:47:45.236Z,235
2018-08-17T11:48:45.256Z,230
2018-08-17T11:49:45.239Z,215
2018-08-17T11:50:44.996Z,205
2018-08-17T11:51:44.745Z,205
2018-08-17T11:52:45.009Z,205
2018-08-17T11:53:46.009Z,215
2018-08-17T11:54:44.761Z,215
2018-08-17T11:55:44.764Z,235
2018-08-17T11:56:45.028Z,235
2018-08-17T11:57:45.031Z,235
2018-08-17T11:58:45.296Z,235
2018-08-17T11:59:44.780Z,230
2018-08-17T12:00:45.302Z,235
2018-08-17T12:01:45.098Z,230
2018-08-17T12:02:44.804Z,235
2018-08-17T12:03:45.059Z,240
2018-08-17T12:04:45.078Z,240
2018-08-17T12:05:44.814Z,245
2018-08-17T12:06:45.384Z,250
2018-08-17T12:07:45.344Z,250
2018-08-17T12:08:45.481Z,250
2018-08-17T12:09:45.356Z,250
2018-08-17T12:10:45.107Z,250
2018-08-17T12:11:45.363Z,255
2018-08-17T12:12:45.111Z,250
2018-08-17T12:13:45.121Z,250
2018-08-17T12:14:45.128Z,265
2018-08-17T12:15:44.869Z,265
2018-08-17T12:16:45.137Z,255
2018-08-17T12:17:45.395Z,255
2018-08-17T12:18:45.429Z,250
2018-08-17T12:19:45.408Z,240
2018-08-17T12:20:45.410Z,235
2018-08-17T12:21:45.158Z,230
2018-08-17T12:22:45.426Z,230
2018-08-17T12:23:45.430Z,230
2018-08-17T12:24:45.624Z,230
2018-08-17T12:25:44.668Z,235
2018-08-17T12:26:45.200Z,235
2018-08-17T12:27:44.944Z,240
2018-08-17T12:28:45.458Z,240
2018-08-17T12:29:45.218Z,245
2018-08-17T12:30:45.476Z,245
2018-08-17T12:31:44.968Z,245
2018-08-17T12:32:45.229Z,245
2018-08-17T12:33:45.500Z,250
2018-08-17T12:34:45.242Z,255
2018-08-17T12:35:45.502Z,265
2018-08-17T12:36:45.249Z,275
2018-08-17T12:37:45.512Z,280
2018-08-17T12:38:45.516Z,285
2018-08-17T12:39:45.521Z,280
2018-08-17T12:40:44.756Z,280
2018-08-17T12:41:45.536Z,275
2018-08-17T12:42:45.545Z,265
2018-08-17T12:43:45.297Z,255
2018-08-17T12:44:45.301Z,250
2018-08-17T12:45:45.569Z,240
2018-08-17T12:46:45.895Z,235
2018-08-17T12:47:45.316Z,235
2018-08-17T12:48:45.577Z,230
2018-08-17T12:49:45.584Z,235
2018-08-17T12:50:45.598Z,235
2018-08-17T12:51:45.602Z,235
2018-08-17T12:52:45.350Z,240
2018-08-17T12:53:45.608Z,240
2018-08-17T12:54:45.098Z,240
2018-08-17T12:55:45.366Z,240
2018-08-17T12:56:45.374Z,235
2018-08-17T12:57:45.116Z,235
2018-08-17T12:58:45.633Z,230
2018-08-17T12:59:45.387Z,220
2018-08-17T13:00:45.649Z,220
2018-08-17T13:01:45.144Z,215
2018-08-17T13:02:45.656Z,210
2018-08-17T13:03:45.403Z,210
2018-08-17T13:04:45.413Z,205
2018-08-17T13:05:45.453Z,205
2018-08-17T13:06:45.428Z,195
2018-08-17T13:07:45.433Z,190
2018-08-17T13:08:45.174Z,195
2018-08-17T13:09:45.178Z,195
2018-08-17T13:10:45.568Z,195
2018-08-17T13:11:45.711Z,200
2018-08-17T13:12:45.749Z,200
2018-08-17T13:13:45.715Z,195
2018-08-17T13:14:45.466Z,190
2018-08-17T13:15:44.957Z,190
2018-08-17T13:16:45.730Z,205
2018-08-17T13:17:45.484Z,205
2018-08-17T13:18:45.511Z,200
2018-08-17T13:19:45.505Z,180
2018-08-17T13:20:45.497Z,185
2018-08-17T13:21:45.763Z,180
2018-08-17T13:22:45.507Z,175
2018-08-17T13:23:45.509Z,185
2018-08-17T13:24:45.043Z,190
2018-08-17T13:25:45.783Z,195
2018-08-17T13:26:45.527Z,195
2018-08-17T13:27:45.793Z,200
2018-08-17T13:28:45.287Z,195
2018-08-17T13:29:45.937Z,200
2018-08-17T13:30:45.808Z,210
2018-08-17T13:31:45.813Z,215
2018-08-17T13:32:45.301Z,215
2018-08-17T13:33:45.565Z,215
2018-08-17T13:34:45.843Z,220
2018-08-17T13:35:45.840Z,225
2018-08-17T13:36:45.581Z,225
2018-08-17T13:37:45.589Z,230
2018-08-17T13:38:45.848Z,245
2018-08-17T13:39:45.640Z,250
2018-08-17T13:40:45.869Z,255
2018-08-17T13:41:45.875Z,265
2018-08-17T13:42:45.880Z,265
2018-08-17T13:43:45.619Z,265
2018-08-17T13:44:45.691Z,275
2018-08-17T13:45:45.630Z,290
2018-08-17T13:46:45.901Z,305
2018-08-17T13:47:45.384Z,325
2018-08-17T13:48:46.345Z,330
2018-08-17T13:49:45.653Z,335
2018-08-17T13:50:45.946Z,315
2018-08-17T13:51:45.925Z,300
2018-08-17T13:52:45.670Z,280
2018-08-17T13:53:45.929Z,260
2018-08-17T13:54:45.689Z,255
2018-08-17T13:55:45.682Z,255
2018-08-17T13:56:45.954Z,255
2018-08-17T13:57:45.184Z,255
2018-08-17T13:58:45.703Z,250
2018-08-17T13:59:45.719Z,250
2018-08-17T14:00:45.972Z,245
2018-08-17T14:01:45.716Z,245
2018-08-17T14:02:45.471Z,245
2018-08-17T14:03:45.731Z,240
2018-08-17T14:04:45.992Z,240
2018-08-17T14:05:46.005Z,235